MMHO/HMO METAR and TAF weather

Enter ICAO airport designator
Station Type Date Time Source
MMHO METAR 2023/02/04 02:40 UTC NOAA

MMHO 040240Z 00000KT 10SM SCT090 BKN200 19/02 A3007 RMK SLP187 52004 976 8/038 HZY


Station Type Date Time Source
MMHO Decoded METAR 2023/02/04 02:40 UTC NOAA

Hermosillo, Son., Mexico (MMHO) 29-04N 110-57W
Feb 03, 2023 - 09:40 PM EST / 2023.02.04 0240 UTC
Wind: Calm:0
Visibility: 10 mile(s):0
Sky conditions: mostly cloudy
Temperature: 66 F (19 C)
Dew Point: 35 F (2 C)
Relative Humidity: 32%
Pressure (altimeter): 30.07 in. Hg (1018 hPa)
Pressure tendency: 0.01 inches (0.4 hPa) higher than three hours ago
ob: MMHO 040240Z 00000KT 10SM SCT090 BKN200 19/02 A3007 RMK SLP187 52004 976 8/038 HZY
cycle: 2

Station Type Date Time Source
MMHO TAF 2023/02/03 18:06 UTC NOAA

TAF MMHO 031603Z 0318/0418 11006KT P6SM SCT220
BECMG 0319/0320 BKN220
FM040300 23004KT P6SM SCT250
FM041600 03004KT P6SM SKC

Example: see airport list